Terminal Aerodrome Forecast
Issued by NWS Sterling, VA

Home | Current Version | Previous Version | Text Only | Print | Product List | Glossary On
Versions: 1 2 3 4 5 6 7 8 9 10 11 12 13 14 15 16 17 18 19 20 21 22 23 24 25
000
FTUS41 KLWX 031751 AAA
TAFBWI
TAF AMD
KBWI 031751Z 0318/0424 14006KT 6SM -PLSN BKN035 BKN050 OVC090
     FM031900 14010KT 5SM -FZRAPL OVC030
     FM032100 14010KT 5SM -FZRA OVC020
     FM040300 22007KT 3SM BR OVC005
     FM041300 25005KT 1SM -RA OVC004=

USA.gov is the U.S. government's official web portal to all federal, state and local government web resources and services.